createdAt,value
2024-05-09T00:00:48.375Z,13.11
2024-05-09T00:03:36.958Z,13.11
2024-05-09T00:06:05.983Z,13.11
2024-05-09T00:08:34.752Z,13.10
2024-05-09T00:11:06.472Z,13.09
2024-05-09T00:13:34.877Z,13.09
2024-05-09T00:16:03.666Z,13.08
2024-05-09T00:18:33.609Z,13.08
2024-05-09T00:21:05.966Z,13.10
2024-05-09T00:23:34.535Z,13.11
2024-05-09T00:26:02.829Z,13.13
2024-05-09T00:28:38.551Z,13.13
2024-05-09T00:31:07.138Z,13.13
2024-05-09T00:33:35.681Z,13.13
2024-05-09T00:36:04.423Z,13.13
2024-05-09T00:38:33.037Z,13.12
2024-05-09T00:41:01.816Z,13.09
2024-05-09T00:43:30.161Z,13.05
2024-05-09T00:46:01.970Z,13.05
2024-05-09T00:48:30.617Z,13.04
2024-05-09T00:51:00.545Z,13.04
2024-05-09T00:53:29.966Z,13.02
2024-05-09T00:55:59.283Z,12.97
2024-05-09T01:01:51.509Z,12.98
2024-05-09T01:04:20.403Z,12.95
2024-05-09T01:06:49.231Z,12.95
2024-05-09T01:09:17.594Z,12.96
2024-05-09T01:11:46.264Z,12.96
2024-05-09T01:14:14.880Z,12.94
2024-05-09T01:16:43.612Z,12.92
2024-05-09T01:19:20.472Z,12.88
2024-05-09T01:21:50.231Z,12.81
2024-05-09T01:24:19.286Z,12.79
2024-05-09T01:26:47.798Z,12.77
2024-05-09T01:29:16.267Z,12.76
2024-05-09T01:31:46.821Z,12.76
2024-05-09T01:34:15.646Z,12.75
2024-05-09T01:36:44.662Z,12.71
2024-05-09T01:39:13.151Z,12.64
2024-05-09T01:41:41.632Z,12.60
2024-05-09T01:44:10.340Z,12.57
2024-05-09T01:46:38.982Z,12.54
2024-05-09T01:49:08.267Z,12.52
2024-05-09T01:51:36.753Z,12.50
2024-05-09T01:54:06.283Z,12.49
2024-05-09T01:56:35.010Z,12.47
2024-05-09T01:59:03.682Z,12.45
2024-05-09T02:01:56.031Z,12.39
2024-05-09T02:04:26.345Z,12.34
2024-05-09T02:06:54.944Z,12.27
2024-05-09T02:09:23.481Z,12.28
2024-05-09T02:11:51.926Z,12.27
2024-05-09T02:14:20.928Z,12.26
2024-05-09T02:16:49.715Z,12.25
2024-05-09T02:19:18.552Z,12.23
2024-05-09T02:21:47.447Z,12.18
2024-05-09T02:24:15.999Z,12.14
2024-05-09T02:26:44.309Z,12.14
2024-05-09T02:29:12.822Z,12.15
2024-05-09T02:31:41.459Z,12.15
2024-05-09T02:34:09.960Z,12.14
2024-05-09T02:36:38.625Z,12.11
2024-05-09T02:39:07.164Z,12.09
2024-05-09T02:41:35.696Z,12.07
2024-05-09T02:44:04.399Z,12.05
2024-05-09T02:46:32.951Z,12.03
2024-05-09T02:49:01.742Z,12.01
2024-05-09T02:51:30.529Z,12.01
2024-05-09T02:53:59.208Z,12.01
2024-05-09T02:56:27.994Z,11.96
2024-05-09T02:58:56.884Z,11.90
2024-05-09T03:01:25.410Z,11.84
2024-05-09T03:03:53.916Z,11.78
2024-05-09T03:06:22.634Z,11.68
2024-05-09T03:08:51.341Z,11.58
2024-05-09T03:11:24.401Z,11.54
2024-05-09T03:13:54.542Z,11.52
2024-05-09T03:16:22.950Z,11.47
2024-05-09T03:18:51.374Z,11.46
2024-05-09T03:21:20.074Z,11.47
2024-05-09T03:23:48.914Z,11.46
2024-05-09T03:26:18.650Z,11.46
2024-05-09T03:28:47.144Z,11.47
2024-05-09T03:31:18.678Z,11.49
2024-05-09T03:33:47.307Z,11.49
2024-05-09T03:36:16.130Z,11.48
2024-05-09T03:38:44.686Z,11.46
2024-05-09T03:41:13.187Z,11.44
2024-05-09T03:43:41.727Z,11.41
2024-05-09T03:46:10.275Z,11.39
2024-05-09T03:48:38.809Z,11.37
2024-05-09T03:51:07.704Z,11.35
2024-05-09T03:53:36.390Z,11.33
2024-05-09T03:56:08.241Z,11.35
2024-05-09T03:58:37.840Z,11.38
2024-05-09T04:01:06.770Z,11.37
2024-05-09T04:03:35.267Z,11.34
2024-05-09T04:06:04.165Z,11.34
2024-05-09T04:08:32.762Z,11.32
2024-05-09T04:11:01.688Z,11.31
2024-05-09T04:13:30.426Z,11.33
2024-05-09T04:15:58.748Z,11.35
2024-05-09T04:18:27.386Z,11.34
2024-05-09T04:20:56.956Z,11.32
2024-05-09T04:23:25.784Z,11.34
2024-05-09T04:25:59.092Z,11.37
2024-05-09T04:28:27.637Z,11.44
2024-05-09T04:30:56.310Z,11.48
2024-05-09T04:33:26.656Z,11.52
2024-05-09T04:35:57.894Z,11.56
2024-05-09T04:38:26.379Z,11.58
2024-05-09T04:40:54.943Z,11.58
2024-05-09T04:43:23.722Z,11.59
2024-05-09T04:45:53.847Z,11.61
2024-05-09T04:48:22.574Z,11.58
2024-05-09T04:50:51.536Z,11.56
2024-05-09T04:53:20.517Z,11.52
2024-05-09T05:00:51.003Z,11.45
2024-05-09T05:03:20.170Z,11.47
2024-05-09T05:05:49.266Z,11.48
2024-05-09T05:08:19.285Z,11.48
2024-05-09T05:10:49.422Z,11.51
2024-05-09T05:13:23.915Z,11.53
2024-05-09T05:15:58.275Z,11.54
2024-05-09T05:18:28.458Z,11.55
2024-05-09T05:20:58.561Z,11.55
2024-05-09T05:23:27.225Z,11.56
2024-05-09T05:25:56.218Z,11.57
2024-05-09T05:28:25.113Z,11.57
2024-05-09T05:30:53.552Z,11.59
2024-05-09T05:33:23.039Z,11.62
2024-05-09T05:35:51.923Z,11.65
2024-05-09T05:38:22.847Z,11.69
2024-05-09T05:40:56.664Z,11.82
2024-05-09T05:43:25.359Z,11.97
2024-05-09T05:45:53.786Z,12.01
2024-05-09T05:48:22.409Z,12.02
2024-05-09T05:50:51.182Z,11.99
2024-05-09T05:53:20.960Z,11.93
2024-05-09T05:55:49.380Z,11.88
2024-05-09T05:58:20.205Z,11.87
2024-05-09T06:00:49.194Z,11.85
2024-05-09T06:03:17.719Z,11.84
2024-05-09T06:05:46.698Z,11.82
2024-05-09T06:08:17.073Z,11.81
2024-05-09T06:10:45.609Z,11.81
2024-05-09T06:13:16.679Z,11.80
2024-05-09T06:15:45.085Z,11.78
2024-05-09T06:18:14.468Z,11.74
2024-05-09T06:20:44.168Z,11.70
2024-05-09T06:23:14.584Z,11.66
2024-05-09T06:25:44.227Z,11.54
2024-05-09T06:28:15.227Z,11.54
2024-05-09T06:30:43.633Z,11.60
2024-05-09T06:33:14.449Z,11.69
2024-05-09T06:35:46.819Z,11.75
2024-05-09T06:38:18.985Z,11.83
2024-05-09T06:44:17.970Z,11.99
2024-05-09T06:46:46.550Z,12.03
2024-05-09T06:49:18.106Z,12.08
2024-05-09T06:51:47.080Z,11.99
2024-05-09T06:54:15.596Z,11.95
2024-05-09T06:56:44.154Z,11.96
2024-05-09T06:59:17.015Z,11.95
2024-05-09T07:01:46.530Z,11.94
2024-05-09T07:04:15.151Z,11.92
2024-05-09T07:06:44.222Z,11.92
2024-05-09T07:09:12.724Z,11.92
2024-05-09T07:11:41.001Z,11.93
2024-05-09T07:14:13.989Z,11.97
2024-05-09T07:16:42.312Z,12.00
2024-05-09T07:19:13.828Z,12.04
2024-05-09T07:21:42.310Z,12.07
2024-05-09T07:24:10.582Z,12.14
2024-05-09T07:32:09.117Z,12.31
2024-05-09T07:34:37.588Z,12.27
2024-05-09T07:37:12.637Z,12.16
2024-05-09T07:39:43.411Z,12.17
2024-05-09T07:42:14.157Z,12.19
2024-05-09T07:44:42.571Z,12.25
2024-05-09T07:48:27.953Z,12.25
2024-05-09T07:52:00.967Z,12.26
2024-05-09T07:53:35.494Z,12.28
2024-05-09T07:55:41.662Z,12.31
2024-05-09T07:58:10.235Z,12.37
2024-05-09T08:00:38.988Z,12.42
2024-05-09T08:06:32.340Z,12.46
2024-05-09T08:09:05.436Z,12.48
2024-05-09T08:11:36.632Z,12.51
2024-05-09T08:14:05.119Z,12.51
2024-05-09T08:16:38.977Z,12.45
2024-05-09T08:19:07.462Z,12.44
2024-05-09T08:21:36.509Z,12.46
2024-05-09T08:24:10.441Z,12.45
2024-05-09T08:26:40.093Z,12.41
2024-05-09T08:29:13.712Z,12.40
2024-05-09T08:31:42.513Z,12.37
2024-05-09T08:34:12.518Z,12.37
2024-05-09T08:36:41.148Z,12.36
2024-05-09T08:39:09.806Z,12.38
2024-05-09T08:41:42.303Z,12.40
2024-05-09T08:44:14.709Z,12.44
2024-05-09T08:46:52.295Z,12.40
2024-05-09T08:49:23.018Z,12.40
2024-05-09T08:51:52.102Z,12.36
2024-05-09T08:54:22.925Z,12.32
2024-05-09T08:56:52.214Z,12.31
2024-05-09T08:59:44.783Z,12.29
2024-05-09T09:02:16.176Z,12.28
2024-05-09T09:05:03.541Z,12.28
2024-05-09T09:07:33.698Z,12.29
2024-05-09T09:10:05.582Z,12.31
2024-05-09T09:12:38.615Z,12.36
2024-05-09T09:15:09.671Z,12.38
2024-05-09T09:17:38.317Z,12.39
2024-05-09T09:20:13.978Z,12.42
2024-05-09T09:22:44.794Z,12.45
2024-05-09T09:25:13.646Z,12.48
2024-05-09T09:27:42.173Z,12.51
2024-05-09T09:30:26.889Z,12.54
2024-05-09T09:33:02.664Z,12.54
2024-05-09T09:35:31.372Z,12.57
2024-05-09T09:38:04.518Z,12.60
2024-05-09T09:40:42.817Z,12.61
2024-05-09T09:43:22.407Z,12.60
2024-05-09T09:45:53.413Z,12.62
2024-05-09T09:48:27.840Z,12.66
2024-05-09T09:50:57.413Z,12.68
2024-05-09T09:53:31.926Z,12.60
2024-05-09T09:56:03.729Z,12.57
2024-05-09T09:58:39.038Z,12.59
2024-05-09T10:01:12.934Z,12.56
2024-05-09T10:03:42.327Z,12.53
2024-05-09T10:06:12.321Z,12.53
2024-05-09T10:08:42.323Z,12.54
2024-05-09T10:11:11.053Z,12.51
2024-05-09T10:13:41.848Z,12.49
2024-05-09T10:16:11.409Z,12.50
2024-05-09T10:18:41.698Z,12.50
2024-05-09T10:21:18.256Z,12.51
2024-05-09T10:24:00.077Z,12.50
2024-05-09T10:26:35.946Z,12.47
2024-05-09T10:29:19.226Z,12.44
2024-05-09T10:31:48.378Z,12.39
2024-05-09T10:34:21.494Z,12.43
2024-05-09T10:44:10.879Z,12.58
2024-05-09T10:46:39.194Z,12.59
2024-05-09T10:49:08.540Z,12.60
2024-05-09T10:51:40.345Z,12.59
2024-05-09T10:54:11.316Z,12.59
2024-05-09T11:00:12.760Z,12.60
2024-05-09T11:02:44.825Z,12.51
2024-05-09T11:05:14.386Z,12.40
2024-05-09T11:07:43.125Z,12.30
2024-05-09T11:10:17.801Z,12.24
2024-05-09T11:12:46.537Z,12.17
2024-05-09T11:15:17.391Z,12.14
2024-05-09T11:17:45.953Z,12.11
2024-05-09T11:20:22.599Z,12.07
2024-05-09T11:22:57.757Z,12.01
2024-05-09T11:25:33.120Z,12.00
2024-05-09T11:28:55.224Z,11.96
2024-05-09T11:31:23.885Z,11.93
2024-05-09T11:33:56.576Z,11.91
2024-05-09T11:36:25.232Z,11.87
2024-05-09T11:42:26.786Z,11.85
2024-05-09T11:44:55.249Z,11.79
2024-05-09T11:47:23.777Z,11.76
2024-05-09T11:49:56.891Z,11.73
2024-05-09T11:52:27.561Z,11.70
2024-05-09T11:54:56.428Z,11.66
2024-05-09T11:57:29.524Z,11.67
2024-05-09T12:00:04.341Z,11.69
2024-05-09T12:02:34.352Z,11.71
2024-05-09T12:05:03.105Z,11.75
2024-05-09T12:07:31.755Z,11.75
2024-05-09T12:10:03.458Z,11.77
2024-05-09T12:12:37.259Z,11.79
2024-05-09T12:15:06.273Z,11.80
2024-05-09T12:17:34.828Z,11.78
2024-05-09T12:20:06.995Z,11.77
2024-05-09T12:22:37.651Z,11.75
2024-05-09T12:25:07.608Z,11.74
2024-05-09T12:27:37.356Z,11.76
2024-05-09T12:30:08.974Z,11.78
2024-05-09T12:32:40.551Z,11.74
2024-05-09T12:35:09.347Z,11.69
2024-05-09T12:37:37.879Z,11.71
2024-05-09T12:40:12.667Z,11.74
2024-05-09T12:42:46.896Z,11.77
2024-05-09T12:45:18.527Z,11.77
2024-05-09T12:47:47.093Z,11.79
2024-05-09T12:50:25.239Z,11.79
2024-05-09T12:53:00.093Z,11.78
2024-05-09T12:55:29.973Z,11.80
2024-05-09T12:58:02.868Z,11.81
2024-05-09T13:00:33.960Z,11.82
2024-05-09T13:03:04.167Z,11.81
2024-05-09T13:05:32.852Z,11.84
2024-05-09T13:08:03.603Z,11.83
2024-05-09T13:10:33.601Z,11.82
2024-05-09T13:13:02.497Z,11.85
2024-05-09T13:15:31.577Z,11.90
2024-05-09T13:18:03.061Z,11.95
2024-05-09T13:20:35.043Z,12.02
2024-05-09T13:23:06.664Z,12.00
2024-05-09T13:25:37.985Z,12.03
2024-05-09T13:28:09.827Z,12.03
2024-05-09T13:30:41.231Z,12.03
2024-05-09T13:33:12.317Z,12.04
2024-05-09T13:35:47.145Z,12.04
2024-05-09T13:38:20.163Z,12.09
2024-05-09T13:40:49.996Z,12.13
2024-05-09T13:43:21.848Z,12.12
2024-05-09T13:45:55.848Z,12.14
2024-05-09T13:48:24.620Z,12.20
2024-05-09T13:50:53.030Z,12.24
2024-05-09T13:58:30.274Z,12.27
2024-05-09T14:00:58.644Z,12.33
2024-05-09T14:03:29.847Z,12.37
2024-05-09T14:05:59.486Z,12.42
2024-05-09T14:08:29.017Z,12.46
2024-05-09T14:14:15.044Z,12.49
2024-05-09T14:16:43.581Z,12.45
2024-05-09T14:19:12.536Z,12.41
2024-05-09T14:21:40.976Z,12.42
2024-05-09T14:24:09.446Z,12.45
2024-05-09T14:26:37.679Z,12.52
2024-05-09T14:29:05.939Z,12.60
2024-05-09T14:31:35.539Z,12.72
2024-05-09T14:34:05.592Z,12.84
2024-05-09T14:36:38.017Z,12.94
2024-05-09T14:39:06.741Z,13.04
2024-05-09T14:41:35.105Z,13.18
2024-05-09T14:44:03.410Z,13.33
2024-05-09T14:46:31.719Z,13.42
2024-05-09T14:49:00.481Z,13.49
2024-05-09T14:51:31.163Z,13.61
2024-05-09T14:53:59.470Z,13.70
2024-05-09T14:56:27.717Z,13.83
2024-05-09T14:58:57.212Z,13.87
2024-05-09T15:01:25.583Z,13.93
2024-05-09T15:03:54.325Z,13.94
2024-05-09T15:06:23.092Z,13.98
2024-05-09T15:08:57.692Z,14.06
2024-05-09T15:11:27.692Z,14.10
2024-05-09T15:13:56.152Z,14.14
2024-05-09T15:16:25.760Z,14.12
2024-05-09T15:18:54.578Z,14.11
2024-05-09T15:21:25.673Z,14.08
2024-05-09T15:23:54.574Z,13.99
2024-05-09T15:26:32.015Z,13.83
2024-05-09T15:29:00.289Z,13.70
2024-05-09T15:31:29.707Z,13.61
2024-05-09T15:33:58.507Z,13.48
2024-05-09T15:36:27.028Z,13.39
2024-05-09T15:38:56.157Z,13.32
2024-05-09T15:41:24.584Z,13.25
2024-05-09T15:43:54.698Z,13.20
2024-05-09T15:46:25.063Z,13.15
2024-05-09T15:48:57.708Z,13.16
2024-05-09T15:51:27.251Z,13.16
2024-05-09T15:53:56.590Z,13.30
2024-05-09T15:56:25.090Z,13.41
2024-05-09T16:04:26.058Z,13.59
2024-05-09T16:06:54.940Z,13.66
2024-05-09T16:09:24.602Z,13.71
2024-05-09T16:11:52.976Z,13.66
2024-05-09T16:14:21.280Z,13.56
2024-05-09T16:16:52.447Z,13.54
2024-05-09T16:19:21.090Z,13.54
2024-05-09T16:21:50.801Z,13.55
2024-05-09T16:24:19.059Z,13.49
2024-05-09T16:26:47.467Z,13.37
2024-05-09T16:29:15.913Z,13.26
2024-05-09T16:31:44.224Z,13.17
2024-05-09T16:34:12.831Z,13.11
2024-05-09T16:36:44.110Z,13.03
2024-05-09T16:39:12.655Z,12.95
2024-05-09T16:41:40.842Z,12.85
2024-05-09T16:44:09.079Z,12.78
2024-05-09T16:46:37.423Z,12.72
2024-05-09T16:49:09.251Z,12.66
2024-05-09T16:51:37.603Z,12.57
2024-05-09T16:54:09.007Z,12.50
2024-05-09T16:56:37.232Z,12.45
2024-05-09T16:59:05.594Z,12.38
2024-05-09T17:01:33.938Z,12.31
2024-05-09T17:04:02.661Z,12.26
2024-05-09T17:06:31.268Z,12.21
2024-05-09T17:09:08.121Z,12.17
2024-05-09T17:11:40.514Z,12.14
2024-05-09T17:14:09.583Z,12.13
2024-05-09T17:16:38.298Z,12.09
2024-05-09T17:19:06.991Z,12.03
2024-05-09T17:21:35.368Z,11.97
2024-05-09T17:24:03.765Z,11.89
2024-05-09T17:26:32.573Z,11.86
2024-05-09T17:29:01.083Z,11.81
2024-05-09T17:31:29.455Z,11.72
2024-05-09T17:33:58.677Z,11.66
2024-05-09T17:36:27.227Z,11.60
2024-05-09T17:38:56.108Z,11.51
2024-05-09T17:41:24.468Z,11.45
2024-05-09T17:43:52.821Z,11.40
2024-05-09T17:46:24.158Z,11.36
2024-05-09T17:48:52.951Z,11.30
2024-05-09T17:51:26.838Z,11.24
2024-05-09T17:53:55.758Z,11.15
2024-05-09T17:56:27.041Z,11.10
2024-05-09T17:58:58.644Z,11.06
2024-05-09T18:01:27.057Z,11.01
2024-05-09T18:03:56.231Z,10.98
2024-05-09T18:06:25.237Z,10.96
2024-05-09T18:08:53.904Z,10.93
2024-05-09T18:11:22.513Z,10.92
2024-05-09T18:13:54.071Z,10.88
2024-05-09T18:16:22.636Z,10.84
2024-05-09T18:18:51.545Z,10.83
2024-05-09T18:21:20.001Z,10.80
2024-05-09T18:23:51.927Z,10.77
2024-05-09T18:26:20.309Z,10.74
2024-05-09T18:28:49.181Z,10.69
2024-05-09T18:31:17.752Z,10.65
2024-05-09T18:33:49.412Z,10.61
2024-05-09T18:36:17.966Z,10.56
2024-05-09T18:38:46.671Z,10.52
2024-05-09T18:41:15.613Z,10.47
2024-05-09T18:43:45.490Z,10.43
2024-05-09T18:46:17.238Z,10.38
2024-05-09T18:48:46.001Z,10.36
2024-05-09T18:51:14.733Z,10.31
2024-05-09T18:53:44.653Z,10.27
2024-05-09T18:56:13.775Z,10.22
2024-05-09T18:58:42.273Z,10.17
2024-05-09T19:01:11.427Z,10.17
2024-05-09T19:03:40.142Z,10.19
2024-05-09T19:06:08.908Z,10.20
2024-05-09T19:08:40.475Z,10.17
2024-05-09T19:11:08.917Z,10.13
2024-05-09T19:13:37.368Z,10.08
2024-05-09T19:16:06.232Z,10.01
2024-05-09T19:18:38.528Z,9.94
2024-05-09T19:21:07.594Z,9.90
2024-05-09T19:23:38.423Z,9.87
2024-05-09T19:26:09.891Z,9.80
2024-05-09T19:28:40.403Z,9.72
2024-05-09T19:31:16.592Z,9.68
2024-05-09T19:33:45.165Z,9.66
2024-05-09T19:36:13.745Z,9.63
2024-05-09T19:38:42.181Z,9.60
2024-05-09T19:41:10.787Z,9.58
2024-05-09T19:43:48.517Z,9.53
2024-05-09T19:46:17.681Z,9.50
2024-05-09T19:48:46.311Z,9.48
2024-05-09T19:51:14.814Z,9.45
2024-05-09T19:53:47.724Z,9.44
2024-05-09T19:56:16.404Z,9.44
2024-05-09T19:58:44.894Z,9.43
2024-05-09T20:01:13.383Z,9.38
2024-05-09T20:03:42.249Z,9.34
2024-05-09T20:06:11.258Z,9.29
2024-05-09T20:08:45.065Z,9.25
2024-05-09T20:11:14.853Z,9.21
2024-05-09T20:13:43.657Z,9.14
2024-05-09T20:16:15.496Z,9.07
2024-05-09T20:18:44.047Z,9.01
2024-05-09T20:21:12.696Z,8.96
2024-05-09T20:23:41.326Z,8.94
2024-05-09T20:26:12.809Z,8.93
2024-05-09T20:28:41.537Z,8.89
2024-05-09T20:31:19.226Z,8.83
2024-05-09T20:33:49.539Z,8.75
2024-05-09T20:36:18.136Z,8.70
2024-05-09T20:38:49.336Z,8.73
2024-05-09T20:41:20.082Z,8.72
2024-05-09T20:44:09.023Z,8.67
2024-05-09T20:46:40.071Z,8.66
2024-05-09T20:49:12.072Z,8.65
2024-05-09T20:51:43.704Z,8.61
2024-05-09T20:54:12.176Z,8.55
2024-05-09T20:56:47.895Z,8.50
2024-05-09T20:59:19.977Z,8.45
2024-05-09T21:01:49.407Z,8.42
2024-05-09T21:04:18.578Z,8.36
2024-05-09T21:06:47.164Z,8.31
2024-05-09T21:09:15.997Z,8.29
2024-05-09T21:11:44.470Z,8.26
2024-05-09T21:14:16.011Z,8.25
2024-05-09T21:16:44.628Z,8.25
2024-05-09T21:19:13.441Z,8.27
2024-05-09T21:21:45.523Z,8.23
2024-05-09T21:24:16.904Z,8.17
2024-05-09T21:26:46.246Z,8.14
2024-05-09T21:29:14.878Z,8.13
2024-05-09T21:31:45.500Z,8.07
2024-05-09T21:34:16.948Z,8.08
2024-05-09T21:36:46.338Z,8.12
2024-05-09T21:39:20.421Z,8.11
2024-05-09T21:41:52.078Z,8.07
2024-05-09T21:44:20.298Z,8.00
2024-05-09T21:46:48.666Z,7.96
2024-05-09T21:49:21.154Z,7.96
2024-05-09T21:51:50.171Z,7.96
2024-05-09T21:54:21.584Z,7.93
2024-05-09T21:56:50.027Z,7.90
2024-05-09T21:59:20.674Z,7.85
2024-05-09T22:01:51.851Z,7.81
2024-05-09T22:04:20.820Z,7.84
2024-05-09T22:06:49.596Z,7.81
2024-05-09T22:09:20.429Z,7.75
2024-05-09T22:11:52.066Z,7.75
2024-05-09T22:14:24.574Z,7.79
2024-05-09T22:16:56.001Z,7.76
2024-05-09T22:19:29.714Z,7.69
2024-05-09T22:22:01.345Z,7.64
2024-05-09T22:24:29.885Z,7.61
2024-05-09T22:27:03.244Z,7.58
2024-05-09T22:29:32.758Z,7.56
2024-05-09T22:32:09.616Z,7.51
2024-05-09T22:34:44.537Z,7.46
2024-05-09T22:37:16.676Z,7.41
2024-05-09T22:39:45.492Z,7.36
2024-05-09T22:42:13.971Z,7.35
2024-05-09T22:44:43.311Z,7.31
2024-05-09T22:47:11.931Z,7.27
2024-05-09T22:49:40.554Z,7.24
2024-05-09T22:52:09.238Z,7.23
2024-05-09T22:54:37.962Z,7.20
2024-05-09T22:57:09.182Z,7.16
2024-05-09T22:59:41.330Z,7.14
2024-05-09T23:02:14.148Z,7.12
2024-05-09T23:04:48.193Z,7.12
2024-05-09T23:07:19.791Z,7.09
2024-05-09T23:09:48.383Z,7.07
2024-05-09T23:12:17.817Z,7.06
2024-05-09T23:14:46.776Z,7.07
2024-05-09T23:17:20.862Z,7.06
2024-05-09T23:19:49.354Z,7.04
2024-05-09T23:22:18.392Z,7.06
2024-05-09T23:24:47.885Z,7.06
2024-05-09T23:27:18.738Z,7.08
2024-05-09T23:29:47.426Z,7.05
2024-05-09T23:32:18.196Z,7.01
2024-05-09T23:34:46.820Z,7.00
2024-05-09T23:37:15.301Z,6.98
2024-05-09T23:39:43.840Z,6.95
2024-05-09T23:42:14.775Z,6.88
2024-05-09T23:44:46.148Z,6.83
2024-05-09T23:47:14.776Z,6.80
2024-05-09T23:49:44.282Z,6.78
2024-05-09T23:52:15.503Z,6.73
2024-05-09T23:54:47.346Z,6.68
2024-05-09T23:57:16.996Z,6.63
2024-05-09T23:59:45.406Z,6.59
